sensor_id;sensor_type;location;lat;lon;timestamp;temperature;humidity
53294;DHT22;39181;53.440;5.644;2023-12-29T00:01:30;9.70;99.90
53294;DHT22;39181;53.440;5.644;2023-12-29T00:03:56;9.70;99.90
53294;DHT22;39181;53.440;5.644;2023-12-29T00:06:21;9.60;99.90
53294;DHT22;39181;53.440;5.644;2023-12-29T00:08:47;9.30;99.90
53294;DHT22;39181;53.440;5.644;2023-12-29T00:11:22;9.30;99.90
53294;DHT22;39181;53.440;5.644;2023-12-29T00:13:48;9.60;99.90
53294;DHT22;39181;53.440;5.644;2023-12-29T00:16:15;9.60;99.90
53294;DHT22;39181;53.440;5.644;2023-12-29T00:18:40;9.00;99.90
53294;DHT22;39181;53.440;5.644;2023-12-29T00:21:06;9.10;99.90
53294;DHT22;39181;53.440;5.644;2023-12-29T00:23:32;9.20;99.90
53294;DHT22;39181;53.440;5.644;2023-12-29T00:25:58;9.40;99.90
53294;DHT22;39181;53.440;5.644;2023-12-29T00:28:23;9.10;99.90
53294;DHT22;39181;53.440;5.644;2023-12-29T00:30:49;9.10;99.90
53294;DHT22;39181;53.440;5.644;2023-12-29T00:33:15;9.00;99.90
53294;DHT22;39181;53.440;5.644;2023-12-29T00:35:40;9.50;99.90
53294;DHT22;39181;53.440;5.644;2023-12-29T00:38:06;9.00;99.90
53294;DHT22;39181;53.440;5.644;2023-12-29T00:40:33;9.50;99.90
53294;DHT22;39181;53.440;5.644;2023-12-29T00:43:00;9.10;99.90
53294;DHT22;39181;53.440;5.644;2023-12-29T00:45:25;9.50;99.90
53294;DHT22;39181;53.440;5.644;2023-12-29T00:47:51;9.50;99.90
53294;DHT22;39181;53.440;5.644;2023-12-29T00:50:17;9.40;99.90
53294;DHT22;39181;53.440;5.644;2023-12-29T00:52:42;9.00;99.90
53294;DHT22;39181;53.440;5.644;2023-12-29T00:55:08;9.00;99.90
53294;DHT22;39181;53.440;5.644;2023-12-29T00:57:34;9.50;99.90
53294;DHT22;39181;53.440;5.644;2023-12-29T01:00:00;9.20;99.90
53294;DHT22;39181;53.440;5.644;2023-12-29T01:02:26;9.50;99.90
53294;DHT22;39181;53.440;5.644;2023-12-29T01:04:52;9.00;99.90
53294;DHT22;39181;53.440;5.644;2023-12-29T01:07:17;9.20;99.90
53294;DHT22;39181;53.440;5.644;2023-12-29T01:09:43;9.00;99.90
53294;DHT22;39181;53.440;5.644;2023-12-29T01:12:09;9.00;99.90
53294;DHT22;39181;53.440;5.644;2023-12-29T01:14:34;9.00;99.90
53294;DHT22;39181;53.440;5.644;2023-12-29T01:17:00;9.50;99.90
53294;DHT22;39181;53.440;5.644;2023-12-29T01:19:26;9.10;99.90
53294;DHT22;39181;53.440;5.644;2023-12-29T01:21:51;9.00;99.90
53294;DHT22;39181;53.440;5.644;2023-12-29T01:24:17;9.20;99.90
53294;DHT22;39181;53.440;5.644;2023-12-29T01:26:42;9.00;99.90
53294;DHT22;39181;53.440;5.644;2023-12-29T01:29:08;9.20;99.90
53294;DHT22;39181;53.440;5.644;2023-12-29T01:31:33;9.00;99.90
53294;DHT22;39181;53.440;5.644;2023-12-29T01:33:59;9.50;99.90
53294;DHT22;39181;53.440;5.644;2023-12-29T01:36:25;9.50;99.90
53294;DHT22;39181;53.440;5.644;2023-12-29T01:38:50;9.10;99.90
53294;DHT22;39181;53.440;5.644;2023-12-29T01:41:19;9.20;99.90
53294;DHT22;39181;53.440;5.644;2023-12-29T01:44:18;9.50;99.90
53294;DHT22;39181;53.440;5.644;2023-12-29T01:46:45;9.50;99.90
53294;DHT22;39181;53.440;5.644;2023-12-29T01:49:16;9.50;99.90
53294;DHT22;39181;53.440;5.644;2023-12-29T01:51:44;9.40;99.90
53294;DHT22;39181;53.440;5.644;2023-12-29T01:54:10;9.40;99.90
53294;DHT22;39181;53.440;5.644;2023-12-29T01:56:37;9.40;99.90
53294;DHT22;39181;53.440;5.644;2023-12-29T01:59:03;9.30;99.90
53294;DHT22;39181;53.440;5.644;2023-12-29T02:01:29;8.90;99.90
53294;DHT22;39181;53.440;5.644;2023-12-29T02:03:56;9.00;99.90
53294;DHT22;39181;53.440;5.644;2023-12-29T02:06:22;8.90;99.90
53294;DHT22;39181;53.440;5.644;2023-12-29T02:08:47;8.90;99.90
53294;DHT22;39181;53.440;5.644;2023-12-29T02:11:14;9.30;99.90
53294;DHT22;39181;53.440;5.644;2023-12-29T02:13:39;9.00;99.90
53294;DHT22;39181;53.440;5.644;2023-12-29T02:16:23;8.80;99.90
53294;DHT22;39181;53.440;5.644;2023-12-29T02:18:51;9.10;99.90
53294;DHT22;39181;53.440;5.644;2023-12-29T02:21:23;9.10;99.90
53294;DHT22;39181;53.440;5.644;2023-12-29T02:23:50;9.20;99.90
53294;DHT22;39181;53.440;5.644;2023-12-29T02:26:16;9.20;99.90
53294;DHT22;39181;53.440;5.644;2023-12-29T02:28:48;8.80;99.90
53294;DHT22;39181;53.440;5.644;2023-12-29T02:31:20;9.20;99.90
53294;DHT22;39181;53.440;5.644;2023-12-29T02:33:50;8.80;99.90
53294;DHT22;39181;53.440;5.644;2023-12-29T02:36:16;8.80;99.90
53294;DHT22;39181;53.440;5.644;2023-12-29T02:38:43;8.80;99.90
53294;DHT22;39181;53.440;5.644;2023-12-29T02:41:10;9.10;99.90
53294;DHT22;39181;53.440;5.644;2023-12-29T02:43:36;8.90;99.90
53294;DHT22;39181;53.440;5.644;2023-12-29T02:46:02;9.20;99.90
53294;DHT22;39181;53.440;5.644;2023-12-29T02:48:27;9.20;99.90
53294;DHT22;39181;53.440;5.644;2023-12-29T02:50:53;9.30;99.90
53294;DHT22;39181;53.440;5.644;2023-12-29T02:53:18;9.20;99.90
53294;DHT22;39181;53.440;5.644;2023-12-29T02:55:44;9.30;99.90
53294;DHT22;39181;53.440;5.644;2023-12-29T02:58:09;9.30;99.90
53294;DHT22;39181;53.440;5.644;2023-12-29T03:00:35;9.00;99.90
53294;DHT22;39181;53.440;5.644;2023-12-29T03:03:00;8.90;99.90
53294;DHT22;39181;53.440;5.644;2023-12-29T03:05:26;8.90;99.90
53294;DHT22;39181;53.440;5.644;2023-12-29T03:07:51;8.90;99.90
53294;DHT22;39181;53.440;5.644;2023-12-29T03:10:17;9.20;99.90
53294;DHT22;39181;53.440;5.644;2023-12-29T03:12:43;8.80;99.90
53294;DHT22;39181;53.440;5.644;2023-12-29T03:15:09;9.10;99.90
53294;DHT22;39181;53.440;5.644;2023-12-29T03:17:34;9.10;99.90
53294;DHT22;39181;53.440;5.644;2023-12-29T03:20:02;8.70;99.90
53294;DHT22;39181;53.440;5.644;2023-12-29T03:22:27;9.00;99.90
53294;DHT22;39181;53.440;5.644;2023-12-29T03:24:53;8.60;99.90
53294;DHT22;39181;53.440;5.644;2023-12-29T03:27:18;8.80;99.90
53294;DHT22;39181;53.440;5.644;2023-12-29T03:29:44;8.90;99.90
53294;DHT22;39181;53.440;5.644;2023-12-29T03:32:10;8.60;99.90
53294;DHT22;39181;53.440;5.644;2023-12-29T03:34:35;8.60;99.90
53294;DHT22;39181;53.440;5.644;2023-12-29T03:37:01;8.60;99.90
53294;DHT22;39181;53.440;5.644;2023-12-29T03:39:26;8.90;99.90
53294;DHT22;39181;53.440;5.644;2023-12-29T03:41:52;8.90;99.90
53294;DHT22;39181;53.440;5.644;2023-12-29T03:44:17;8.90;99.90
53294;DHT22;39181;53.440;5.644;2023-12-29T03:46:43;8.50;99.90
53294;DHT22;39181;53.440;5.644;2023-12-29T03:49:09;8.40;99.90
53294;DHT22;39181;53.440;5.644;2023-12-29T03:51:35;8.40;99.90
53294;DHT22;39181;53.440;5.644;2023-12-29T03:54:00;8.40;99.90
53294;DHT22;39181;53.440;5.644;2023-12-29T03:56:26;8.40;99.90
53294;DHT22;39181;53.440;5.644;2023-12-29T03:58:52;8.30;99.90
53294;DHT22;39181;53.440;5.644;2023-12-29T04:01:17;8.50;99.90
53294;DHT22;39181;53.440;5.644;2023-12-29T04:03:44;8.70;99.90
53294;DHT22;39181;53.440;5.644;2023-12-29T04:06:10;8.50;99.90
53294;DHT22;39181;53.440;5.644;2023-12-29T04:08:36;8.70;99.90
53294;DHT22;39181;53.440;5.644;2023-12-29T04:11:03;8.70;99.90
53294;DHT22;39181;53.440;5.644;2023-12-29T04:13:28;8.60;99.90
53294;DHT22;39181;53.440;5.644;2023-12-29T04:15:54;8.70;99.90
53294;DHT22;39181;53.440;5.644;2023-12-29T04:18:21;8.60;99.90
53294;DHT22;39181;53.440;5.644;2023-12-29T04:20:47;8.70;99.90
53294;DHT22;39181;53.440;5.644;2023-12-29T04:23:13;8.30;99.90
53294;DHT22;39181;53.440;5.644;2023-12-29T04:25:39;8.60;99.90
53294;DHT22;39181;53.440;5.644;2023-12-29T04:28:05;8.40;99.90
53294;DHT22;39181;53.440;5.644;2023-12-29T04:30:31;8.80;99.90
53294;DHT22;39181;53.440;5.644;2023-12-29T04:32:56;8.70;99.90
53294;DHT22;39181;53.440;5.644;2023-12-29T04:35:22;8.50;99.90
53294;DHT22;39181;53.440;5.644;2023-12-29T04:37:48;8.60;99.90
53294;DHT22;39181;53.440;5.644;2023-12-29T04:40:15;8.50;99.90
53294;DHT22;39181;53.440;5.644;2023-12-29T04:42:40;8.50;99.90
53294;DHT22;39181;53.440;5.644;2023-12-29T04:45:06;8.30;99.90
53294;DHT22;39181;53.440;5.644;2023-12-29T04:47:32;8.50;99.90
53294;DHT22;39181;53.440;5.644;2023-12-29T04:49:58;8.40;99.90
53294;DHT22;39181;53.440;5.644;2023-12-29T04:52:24;8.80;99.90
53294;DHT22;39181;53.440;5.644;2023-12-29T04:54:49;8.80;99.90
53294;DHT22;39181;53.440;5.644;2023-12-29T04:57:15;8.50;99.90
53294;DHT22;39181;53.440;5.644;2023-12-29T04:59:40;8.50;99.90
53294;DHT22;39181;53.440;5.644;2023-12-29T05:02:06;8.80;99.90
53294;DHT22;39181;53.440;5.644;2023-12-29T05:04:32;8.90;99.90
53294;DHT22;39181;53.440;5.644;2023-12-29T05:06:57;8.80;99.90
53294;DHT22;39181;53.440;5.644;2023-12-29T05:09:23;8.80;99.90
53294;DHT22;39181;53.440;5.644;2023-12-29T05:11:49;8.90;99.90
53294;DHT22;39181;53.440;5.644;2023-12-29T05:14:15;8.70;99.90
53294;DHT22;39181;53.440;5.644;2023-12-29T05:16:41;8.60;99.90
53294;DHT22;39181;53.440;5.644;2023-12-29T05:19:07;8.70;99.90
53294;DHT22;39181;53.440;5.644;2023-12-29T05:21:32;8.80;99.90
53294;DHT22;39181;53.440;5.644;2023-12-29T05:23:58;8.70;99.90
53294;DHT22;39181;53.440;5.644;2023-12-29T05:26:24;8.70;99.90
53294;DHT22;39181;53.440;5.644;2023-12-29T05:28:50;8.70;99.90
53294;DHT22;39181;53.440;5.644;2023-12-29T05:31:16;9.00;99.90
53294;DHT22;39181;53.440;5.644;2023-12-29T05:33:42;9.00;99.90
53294;DHT22;39181;53.440;5.644;2023-12-29T05:36:10;9.00;99.90
53294;DHT22;39181;53.440;5.644;2023-12-29T05:38:36;8.80;99.90
53294;DHT22;39181;53.440;5.644;2023-12-29T05:41:05;8.60;99.90
53294;DHT22;39181;53.440;5.644;2023-12-29T05:43:32;8.70;99.90
53294;DHT22;39181;53.440;5.644;2023-12-29T05:46:01;9.00;99.90
53294;DHT22;39181;53.440;5.644;2023-12-29T05:48:27;8.70;99.90
53294;DHT22;39181;53.440;5.644;2023-12-29T05:50:52;8.70;99.90
53294;DHT22;39181;53.440;5.644;2023-12-29T05:53:18;8.90;99.90
53294;DHT22;39181;53.440;5.644;2023-12-29T05:55:44;8.90;99.90
53294;DHT22;39181;53.440;5.644;2023-12-29T05:58:10;8.70;99.90
53294;DHT22;39181;53.440;5.644;2023-12-29T06:00:39;9.00;99.90
53294;DHT22;39181;53.440;5.644;2023-12-29T06:03:05;9.10;99.90
53294;DHT22;39181;53.440;5.644;2023-12-29T06:05:32;9.00;99.90
53294;DHT22;39181;53.440;5.644;2023-12-29T06:07:57;8.70;99.90
53294;DHT22;39181;53.440;5.644;2023-12-29T06:10:23;9.10;99.90
53294;DHT22;39181;53.440;5.644;2023-12-29T06:12:49;8.70;99.90
53294;DHT22;39181;53.440;5.644;2023-12-29T06:15:15;9.00;99.90
53294;DHT22;39181;53.440;5.644;2023-12-29T06:17:40;9.00;99.90
53294;DHT22;39181;53.440;5.644;2023-12-29T06:20:07;9.10;99.90
53294;DHT22;39181;53.440;5.644;2023-12-29T06:22:38;9.10;99.90
53294;DHT22;39181;53.440;5.644;2023-12-29T06:25:04;8.90;99.90
53294;DHT22;39181;53.440;5.644;2023-12-29T06:27:30;9.00;99.90
53294;DHT22;39181;53.440;5.644;2023-12-29T06:29:57;8.90;99.90
53294;DHT22;39181;53.440;5.644;2023-12-29T06:32:23;8.90;99.90
53294;DHT22;39181;53.440;5.644;2023-12-29T06:34:48;8.70;99.90
53294;DHT22;39181;53.440;5.644;2023-12-29T06:37:14;8.80;99.90
53294;DHT22;39181;53.440;5.644;2023-12-29T06:39:39;8.70;99.90
53294;DHT22;39181;53.440;5.644;2023-12-29T06:42:05;9.00;99.90
53294;DHT22;39181;53.440;5.644;2023-12-29T06:44:31;9.10;99.90
53294;DHT22;39181;53.440;5.644;2023-12-29T06:46:56;8.90;99.90
53294;DHT22;39181;53.440;5.644;2023-12-29T06:49:22;8.80;99.90
53294;DHT22;39181;53.440;5.644;2023-12-29T06:51:48;8.80;99.90
53294;DHT22;39181;53.440;5.644;2023-12-29T06:54:13;8.80;99.90
53294;DHT22;39181;53.440;5.644;2023-12-29T06:56:39;8.80;99.90
53294;DHT22;39181;53.440;5.644;2023-12-29T06:59:04;8.70;99.90
53294;DHT22;39181;53.440;5.644;2023-12-29T07:01:30;8.60;99.90
53294;DHT22;39181;53.440;5.644;2023-12-29T07:03:55;8.60;99.90
53294;DHT22;39181;53.440;5.644;2023-12-29T07:06:21;8.90;99.90
53294;DHT22;39181;53.440;5.644;2023-12-29T07:08:46;8.90;99.90
53294;DHT22;39181;53.440;5.644;2023-12-29T07:11:12;8.70;99.90
53294;DHT22;39181;53.440;5.644;2023-12-29T07:13:38;8.70;99.90
53294;DHT22;39181;53.440;5.644;2023-12-29T07:16:04;8.80;99.90
53294;DHT22;39181;53.440;5.644;2023-12-29T07:18:30;8.70;99.90
53294;DHT22;39181;53.440;5.644;2023-12-29T07:20:55;8.70;99.90
53294;DHT22;39181;53.440;5.644;2023-12-29T07:23:21;8.60;99.90
53294;DHT22;39181;53.440;5.644;2023-12-29T07:25:48;8.50;99.90
53294;DHT22;39181;53.440;5.644;2023-12-29T07:28:13;8.50;99.90
53294;DHT22;39181;53.440;5.644;2023-12-29T07:30:39;8.80;99.90
53294;DHT22;39181;53.440;5.644;2023-12-29T07:33:05;8.80;99.90
53294;DHT22;39181;53.440;5.644;2023-12-29T07:35:31;8.50;99.90
53294;DHT22;39181;53.440;5.644;2023-12-29T07:37:56;8.80;99.90
53294;DHT22;39181;53.440;5.644;2023-12-29T07:40:22;8.60;99.90
53294;DHT22;39181;53.440;5.644;2023-12-29T07:42:48;8.80;99.90
53294;DHT22;39181;53.440;5.644;2023-12-29T07:45:16;8.50;99.90
53294;DHT22;39181;53.440;5.644;2023-12-29T07:47:41;8.60;99.90
53294;DHT22;39181;53.440;5.644;2023-12-29T07:50:07;8.50;99.90
53294;DHT22;39181;53.440;5.644;2023-12-29T07:52:33;8.80;99.90
53294;DHT22;39181;53.440;5.644;2023-12-29T07:54:58;8.60;99.90
53294;DHT22;39181;53.440;5.644;2023-12-29T07:57:24;8.60;99.90
53294;DHT22;39181;53.440;5.644;2023-12-29T07:59:49;8.80;99.90
53294;DHT22;39181;53.440;5.644;2023-12-29T08:02:15;8.50;99.90
53294;DHT22;39181;53.440;5.644;2023-12-29T08:04:41;8.70;99.90
53294;DHT22;39181;53.440;5.644;2023-12-29T08:07:07;8.50;99.90
53294;DHT22;39181;53.440;5.644;2023-12-29T08:09:32;8.60;99.90
53294;DHT22;39181;53.440;5.644;2023-12-29T08:11:58;8.60;99.90
53294;DHT22;39181;53.440;5.644;2023-12-29T08:14:24;8.70;99.90
53294;DHT22;39181;53.440;5.644;2023-12-29T08:16:49;8.70;99.90
53294;DHT22;39181;53.440;5.644;2023-12-29T08:19:15;8.60;99.90
53294;DHT22;39181;53.440;5.644;2023-12-29T08:21:41;8.60;99.90
53294;DHT22;39181;53.440;5.644;2023-12-29T08:24:07;8.70;99.90
53294;DHT22;39181;53.440;5.644;2023-12-29T08:26:32;8.60;99.90
53294;DHT22;39181;53.440;5.644;2023-12-29T08:28:58;8.70;99.90
53294;DHT22;39181;53.440;5.644;2023-12-29T08:31:23;8.60;99.90
53294;DHT22;39181;53.440;5.644;2023-12-29T08:33:49;8.70;99.90
53294;DHT22;39181;53.440;5.644;2023-12-29T08:36:18;8.60;99.90
53294;DHT22;39181;53.440;5.644;2023-12-29T08:38:43;8.80;99.90
53294;DHT22;39181;53.440;5.644;2023-12-29T08:41:09;8.80;99.90
53294;DHT22;39181;53.440;5.644;2023-12-29T08:43:34;8.60;99.90
53294;DHT22;39181;53.440;5.644;2023-12-29T08:46:01;8.70;99.90
53294;DHT22;39181;53.440;5.644;2023-12-29T08:48:27;8.90;99.90
53294;DHT22;39181;53.440;5.644;2023-12-29T08:50:53;9.30;99.90
53294;DHT22;39181;53.440;5.644;2023-12-29T08:53:18;8.70;99.90
53294;DHT22;39181;53.440;5.644;2023-12-29T08:55:44;8.70;99.90
53294;DHT22;39181;53.440;5.644;2023-12-29T08:58:10;8.80;99.90
53294;DHT22;39181;53.440;5.644;2023-12-29T09:00:35;8.90;99.90
53294;DHT22;39181;53.440;5.644;2023-12-29T09:03:01;8.90;99.90
53294;DHT22;39181;53.440;5.644;2023-12-29T09:05:26;8.60;99.90
53294;DHT22;39181;53.440;5.644;2023-12-29T09:07:52;8.70;99.90
53294;DHT22;39181;53.440;5.644;2023-12-29T09:10:18;8.80;99.90
53294;DHT22;39181;53.440;5.644;2023-12-29T09:12:44;8.90;99.90
53294;DHT22;39181;53.440;5.644;2023-12-29T09:15:10;8.80;99.90
53294;DHT22;39181;53.440;5.644;2023-12-29T09:17:35;8.70;99.90
53294;DHT22;39181;53.440;5.644;2023-12-29T09:20:02;8.60;99.90
53294;DHT22;39181;53.440;5.644;2023-12-29T09:22:28;8.80;99.90
53294;DHT22;39181;53.440;5.644;2023-12-29T09:24:54;8.60;99.90
53294;DHT22;39181;53.440;5.644;2023-12-29T09:27:21;8.70;99.90
53294;DHT22;39181;53.440;5.644;2023-12-29T09:29:46;8.70;99.90
53294;DHT22;39181;53.440;5.644;2023-12-29T09:32:12;8.80;99.90
53294;DHT22;39181;53.440;5.644;2023-12-29T09:34:37;8.60;99.90
53294;DHT22;39181;53.440;5.644;2023-12-29T09:37:03;8.70;99.90
53294;DHT22;39181;53.440;5.644;2023-12-29T09:39:29;8.70;99.90
53294;DHT22;39181;53.440;5.644;2023-12-29T09:41:58;8.60;99.90
53294;DHT22;39181;53.440;5.644;2023-12-29T09:44:27;8.40;99.90
53294;DHT22;39181;53.440;5.644;2023-12-29T09:47:01;8.30;99.90
53294;DHT22;39181;53.440;5.644;2023-12-29T09:49:27;8.60;99.90
53294;DHT22;39181;53.440;5.644;2023-12-29T09:51:57;8.60;99.90
53294;DHT22;39181;53.440;5.644;2023-12-29T09:54:24;8.60;99.90
53294;DHT22;39181;53.440;5.644;2023-12-29T09:56:50;8.30;99.90
53294;DHT22;39181;53.440;5.644;2023-12-29T09:59:16;9.20;99.90
53294;DHT22;39181;53.440;5.644;2023-12-29T10:01:44;8.60;99.90
53294;DHT22;39181;53.440;5.644;2023-12-29T10:04:11;8.60;99.90
53294;DHT22;39181;53.440;5.644;2023-12-29T10:06:40;8.40;99.90
53294;DHT22;39181;53.440;5.644;2023-12-29T10:09:07;8.60;99.90
53294;DHT22;39181;53.440;5.644;2023-12-29T10:11:37;8.60;99.90
53294;DHT22;39181;53.440;5.644;2023-12-29T10:14:14;8.60;99.90
53294;DHT22;39181;53.440;5.644;2023-12-29T10:16:48;8.40;99.90
53294;DHT22;39181;53.440;5.644;2023-12-29T10:19:35;8.50;99.90
53294;DHT22;39181;53.440;5.644;2023-12-29T10:22:18;8.50;99.90
53294;DHT22;39181;53.440;5.644;2023-12-29T10:24:46;8.50;99.90
53294;DHT22;39181;53.440;5.644;2023-12-29T10:27:13;8.50;99.90
53294;DHT22;39181;53.440;5.644;2023-12-29T10:29:38;8.50;99.90
53294;DHT22;39181;53.440;5.644;2023-12-29T10:32:04;8.70;99.90
53294;DHT22;39181;53.440;5.644;2023-12-29T10:34:29;8.60;99.90
53294;DHT22;39181;53.440;5.644;2023-12-29T10:36:57;8.70;99.90
53294;DHT22;39181;53.440;5.644;2023-12-29T10:39:23;8.60;99.90
53294;DHT22;39181;53.440;5.644;2023-12-29T10:41:50;8.50;99.90
53294;DHT22;39181;53.440;5.644;2023-12-29T10:44:16;8.60;99.90
53294;DHT22;39181;53.440;5.644;2023-12-29T10:46:42;8.60;99.90
53294;DHT22;39181;53.440;5.644;2023-12-29T10:49:08;8.60;99.90
53294;DHT22;39181;53.440;5.644;2023-12-29T10:51:34;8.60;99.90
53294;DHT22;39181;53.440;5.644;2023-12-29T10:54:00;8.60;99.90
53294;DHT22;39181;53.440;5.644;2023-12-29T10:56:26;8.80;99.90
53294;DHT22;39181;53.440;5.644;2023-12-29T10:59:05;8.80;99.90
53294;DHT22;39181;53.440;5.644;2023-12-29T11:01:34;8.70;99.90
53294;DHT22;39181;53.440;5.644;2023-12-29T11:04:05;8.80;99.90
53294;DHT22;39181;53.440;5.644;2023-12-29T11:06:42;8.70;99.90
53294;DHT22;39181;53.440;5.644;2023-12-29T11:09:10;8.70;99.90
53294;DHT22;39181;53.440;5.644;2023-12-29T11:11:37;8.90;99.90
53294;DHT22;39181;53.440;5.644;2023-12-29T11:14:03;8.90;99.90
53294;DHT22;39181;53.440;5.644;2023-12-29T11:16:29;8.70;99.90
53294;DHT22;39181;53.440;5.644;2023-12-29T11:18:58;8.80;99.90
53294;DHT22;39181;53.440;5.644;2023-12-29T11:21:25;8.80;99.90
53294;DHT22;39181;53.440;5.644;2023-12-29T11:23:51;8.70;99.90
53294;DHT22;39181;53.440;5.644;2023-12-29T11:26:18;8.90;99.90
53294;DHT22;39181;53.440;5.644;2023-12-29T11:28:46;8.70;99.90
53294;DHT22;39181;53.440;5.644;2023-12-29T11:31:16;8.80;99.90
53294;DHT22;39181;53.440;5.644;2023-12-29T11:33:46;8.90;99.90
53294;DHT22;39181;53.440;5.644;2023-12-29T11:36:18;8.70;99.90
53294;DHT22;39181;53.440;5.644;2023-12-29T11:42:08;8.80;99.90
53294;DHT22;39181;53.440;5.644;2023-12-29T11:44:37;8.50;99.90
53294;DHT22;39181;53.440;5.644;2023-12-29T11:47:03;8.60;99.90
53294;DHT22;39181;53.440;5.644;2023-12-29T11:49:58;8.50;99.90
53294;DHT22;39181;53.440;5.644;2023-12-29T11:52:40;8.60;99.90
53294;DHT22;39181;53.440;5.644;2023-12-29T11:55:12;8.50;99.90
53294;DHT22;39181;53.440;5.644;2023-12-29T11:57:38;8.40;99.90
53294;DHT22;39181;53.440;5.644;2023-12-29T12:00:06;8.30;99.90
53294;DHT22;39181;53.440;5.644;2023-12-29T12:02:32;8.60;99.90
53294;DHT22;39181;53.440;5.644;2023-12-29T12:04:58;8.60;99.90
53294;DHT22;39181;53.440;5.644;2023-12-29T12:09:50;8.60;99.90
53294;DHT22;39181;53.440;5.644;2023-12-29T12:12:41;8.80;99.90
53294;DHT22;39181;53.440;5.644;2023-12-29T12:17:55;9.00;99.90
53294;DHT22;39181;53.440;5.644;2023-12-29T12:20:22;9.10;99.90
53294;DHT22;39181;53.440;5.644;2023-12-29T12:23:06;9.10;99.90
53294;DHT22;39181;53.440;5.644;2023-12-29T12:25:35;9.00;99.90
53294;DHT22;39181;53.440;5.644;2023-12-29T12:28:07;9.10;99.90
53294;DHT22;39181;53.440;5.644;2023-12-29T12:30:33;9.10;99.90
53294;DHT22;39181;53.440;5.644;2023-12-29T12:33:03;9.00;99.90
53294;DHT22;39181;53.440;5.644;2023-12-29T12:35:29;9.00;99.90
53294;DHT22;39181;53.440;5.644;2023-12-29T12:38:12;9.20;99.90
53294;DHT22;39181;53.440;5.644;2023-12-29T12:40:37;9.10;99.90
53294;DHT22;39181;53.440;5.644;2023-12-29T12:43:07;9.10;99.90
53294;DHT22;39181;53.440;5.644;2023-12-29T12:45:35;9.20;99.90
53294;DHT22;39181;53.440;5.644;2023-12-29T12:48:22;9.20;99.90
53294;DHT22;39181;53.440;5.644;2023-12-29T12:50:49;9.00;99.90
53294;DHT22;39181;53.440;5.644;2023-12-29T12:53:15;8.60;99.90
53294;DHT22;39181;53.440;5.644;2023-12-29T12:55:48;8.60;99.90
53294;DHT22;39181;53.440;5.644;2023-12-29T12:58:16;8.60;99.90
53294;DHT22;39181;53.440;5.644;2023-12-29T13:00:42;8.50;99.90
53294;DHT22;39181;53.440;5.644;2023-12-29T13:03:08;8.50;99.90
53294;DHT22;39181;53.440;5.644;2023-12-29T13:05:35;8.40;99.90
53294;DHT22;39181;53.440;5.644;2023-12-29T13:08:01;8.50;99.90
53294;DHT22;39181;53.440;5.644;2023-12-29T13:10:28;8.50;99.90
53294;DHT22;39181;53.440;5.644;2023-12-29T13:12:55;8.50;99.90
53294;DHT22;39181;53.440;5.644;2023-12-29T13:15:21;8.50;99.90
53294;DHT22;39181;53.440;5.644;2023-12-29T13:17:54;8.60;99.90
53294;DHT22;39181;53.440;5.644;2023-12-29T13:20:20;8.40;99.90
53294;DHT22;39181;53.440;5.644;2023-12-29T13:22:50;8.50;99.90
53294;DHT22;39181;53.440;5.644;2023-12-29T13:25:28;8.70;99.90
53294;DHT22;39181;53.440;5.644;2023-12-29T13:27:54;8.70;99.90
53294;DHT22;39181;53.440;5.644;2023-12-29T13:30:20;8.70;99.90
53294;DHT22;39181;53.440;5.644;2023-12-29T13:32:49;8.80;99.90
53294;DHT22;39181;53.440;5.644;2023-12-29T13:35:34;8.60;99.90
53294;DHT22;39181;53.440;5.644;2023-12-29T13:38:18;8.60;99.90
53294;DHT22;39181;53.440;5.644;2023-12-29T13:40:57;8.70;99.90
53294;DHT22;39181;53.440;5.644;2023-12-29T13:43:26;8.70;99.90
53294;DHT22;39181;53.440;5.644;2023-12-29T13:45:54;8.70;99.90
53294;DHT22;39181;53.440;5.644;2023-12-29T13:48:20;8.50;99.90
53294;DHT22;39181;53.440;5.644;2023-12-29T13:50:47;8.70;99.90
53294;DHT22;39181;53.440;5.644;2023-12-29T13:53:20;8.50;99.90
53294;DHT22;39181;53.440;5.644;2023-12-29T13:55:47;8.60;99.90
53294;DHT22;39181;53.440;5.644;2023-12-29T13:58:13;8.50;99.90
53294;DHT22;39181;53.440;5.644;2023-12-29T14:00:42;8.50;99.90
53294;DHT22;39181;53.440;5.644;2023-12-29T14:03:27;8.40;99.90
53294;DHT22;39181;53.440;5.644;2023-12-29T14:06:04;8.50;99.90
53294;DHT22;39181;53.440;5.644;2023-12-29T14:08:38;8.50;99.90
53294;DHT22;39181;53.440;5.644;2023-12-29T14:11:08;8.40;99.90
53294;DHT22;39181;53.440;5.644;2023-12-29T14:13:34;8.40;99.90
53294;DHT22;39181;53.440;5.644;2023-12-29T14:16:00;8.50;99.90
53294;DHT22;39181;53.440;5.644;2023-12-29T14:21:29;8.40;99.90
53294;DHT22;39181;53.440;5.644;2023-12-29T14:24:12;8.50;99.90
53294;DHT22;39181;53.440;5.644;2023-12-29T14:29:10;8.50;99.90
53294;DHT22;39181;53.440;5.644;2023-12-29T14:31:37;8.40;99.90
53294;DHT22;39181;53.440;5.644;2023-12-29T14:34:04;8.30;99.90
53294;DHT22;39181;53.440;5.644;2023-12-29T14:36:31;8.40;99.90
53294;DHT22;39181;53.440;5.644;2023-12-29T14:38:56;8.20;99.90
53294;DHT22;39181;53.440;5.644;2023-12-29T14:41:22;8.40;99.90
53294;DHT22;39181;53.440;5.644;2023-12-29T14:43:48;8.20;99.90
53294;DHT22;39181;53.440;5.644;2023-12-29T14:46:13;8.40;99.90
53294;DHT22;39181;53.440;5.644;2023-12-29T14:48:40;8.40;99.90
53294;DHT22;39181;53.440;5.644;2023-12-29T14:51:05;8.40;99.90
53294;DHT22;39181;53.440;5.644;2023-12-29T14:53:31;8.30;99.90
53294;DHT22;39181;53.440;5.644;2023-12-29T14:55:56;8.20;99.90
53294;DHT22;39181;53.440;5.644;2023-12-29T14:58:22;8.20;99.90
53294;DHT22;39181;53.440;5.644;2023-12-29T15:00:47;8.10;99.90
53294;DHT22;39181;53.440;5.644;2023-12-29T15:03:13;8.00;99.90
53294;DHT22;39181;53.440;5.644;2023-12-29T15:05:45;8.10;99.90
53294;DHT22;39181;53.440;5.644;2023-12-29T15:08:11;8.00;99.90
53294;DHT22;39181;53.440;5.644;2023-12-29T15:10:37;8.10;99.90
53294;DHT22;39181;53.440;5.644;2023-12-29T15:13:03;8.10;99.90
53294;DHT22;39181;53.440;5.644;2023-12-29T15:15:30;8.20;99.90
53294;DHT22;39181;53.440;5.644;2023-12-29T15:17:56;8.00;99.90
53294;DHT22;39181;53.440;5.644;2023-12-29T15:20:21;8.00;99.90
53294;DHT22;39181;53.440;5.644;2023-12-29T15:22:47;7.80;99.90
53294;DHT22;39181;53.440;5.644;2023-12-29T15:25:14;8.00;99.90
53294;DHT22;39181;53.440;5.644;2023-12-29T15:27:40;8.00;99.90
53294;DHT22;39181;53.440;5.644;2023-12-29T15:30:06;7.90;99.90
53294;DHT22;39181;53.440;5.644;2023-12-29T15:32:31;7.80;99.90
53294;DHT22;39181;53.440;5.644;2023-12-29T15:34:57;7.90;99.90
53294;DHT22;39181;53.440;5.644;2023-12-29T15:37:23;7.80;99.90
53294;DHT22;39181;53.440;5.644;2023-12-29T15:39:49;7.70;99.90
53294;DHT22;39181;53.440;5.644;2023-12-29T15:42:15;7.60;99.90
53294;DHT22;39181;53.440;5.644;2023-12-29T15:44:40;7.50;99.90
53294;DHT22;39181;53.440;5.644;2023-12-29T15:47:06;7.70;99.90
53294;DHT22;39181;53.440;5.644;2023-12-29T15:49:32;7.60;99.90
53294;DHT22;39181;53.440;5.644;2023-12-29T15:51:58;7.70;99.90
53294;DHT22;39181;53.440;5.644;2023-12-29T15:54:24;7.70;99.90
53294;DHT22;39181;53.440;5.644;2023-12-29T15:56:49;7.80;99.90
53294;DHT22;39181;53.440;5.644;2023-12-29T15:59:15;7.90;99.90